Time;durP1;ratioP1;P1;durP2;ratioP2;P2;SDS_P1;SDS_P2;PMS_P1;PMS_P2;Temp;Humidity;BMP_temperature;BMP_pressure;BME280_temperature;BME280_humidity;BME280_pressure;Samples;Min_cycle;Max_cycle;Signal;HPM_P1;HPM_P2
2022/03/23 00:00:49;;;;;;;23.17;16.00;;;6.00;99.90;;;;;;5035028;28;20108;-75
2022/03/23 00:03:15;;;;;;;22.20;15.57;;;6.00;99.90;;;;;;5017135;28;20116;-74
2022/03/23 00:05:41;;;;;;;20.20;16.17;;;6.00;99.90;;;;;;5016904;28;20529;-76
2022/03/23 00:08:10;;;;;;;23.55;15.75;;;6.00;99.90;;;;;;5034112;28;20504;-75
2022/03/23 00:10:36;;;;;;;20.02;14.48;;;6.00;99.90;;;;;;5016699;28;20048;-75
2022/03/23 00:13:03;;;;;;;27.25;16.27;;;6.00;99.90;;;;;;5034656;28;20501;-74
2022/03/23 00:15:30;;;;;;;24.58;16.27;;;5.90;99.90;;;;;;5016936;28;20037;-76
2022/03/23 00:17:56;;;;;;;20.38;15.73;;;5.90;99.90;;;;;;5034706;28;20083;-75
2022/03/23 00:20:21;;;;;;;18.55;15.45;;;5.90;99.90;;;;;;5034738;28;20025;-76
2022/03/23 00:22:47;;;;;;;19.67;15.20;;;5.80;99.90;;;;;;5016995;28;20029;-75
2022/03/23 00:25:14;;;;;;;23.00;15.73;;;5.80;99.90;;;;;;5016757;28;20417;-75
2022/03/23 00:27:40;;;;;;;21.23;13.88;;;5.70;99.90;;;;;;5034633;28;20033;-77
2022/03/23 00:30:06;;;;;;;18.50;14.75;;;5.70;99.90;;;;;;5016696;28;20462;-76
2022/03/23 00:32:32;;;;;;;20.20;16.17;;;5.70;99.90;;;;;;5034237;28;20029;-76
2022/03/23 00:34:58;;;;;;;20.30;15.23;;;5.70;99.90;;;;;;5034529;28;20478;-74
2022/03/23 00:37:23;;;;;;;20.75;14.32;;;5.60;99.90;;;;;;5034478;28;20079;-76
2022/03/23 00:39:49;;;;;;;20.85;15.63;;;5.70;99.90;;;;;;5034180;28;20466;-75
2022/03/23 00:42:16;;;;;;;20.10;14.57;;;5.60;99.90;;;;;;5016124;28;20112;-75
2022/03/23 00:44:42;;;;;;;22.60;15.10;;;5.70;99.90;;;;;;5016428;28;20483;-75
2022/03/23 00:47:09;;;;;;;21.35;14.27;;;5.60;99.90;;;;;;5016830;28;20034;-76
2022/03/23 00:49:35;;;;;;;23.25;14.60;;;5.60;99.90;;;;;;5034100;28;20036;-76
2022/03/23 00:52:05;;;;;;;24.70;16.05;;;5.60;99.90;;;;;;5033813;28;20021;-75
2022/03/23 00:54:34;;;;;;;24.13;14.25;;;5.60;99.90;;;;;;5033673;28;20025;-75
2022/03/23 00:57:01;;;;;;;16.58;13.98;;;5.60;99.90;;;;;;5033743;28;20104;-77
2022/03/23 00:59:27;;;;;;;22.20;15.70;;;5.60;99.90;;;;;;5016699;28;20040;-76
2022/03/23 01:01:53;;;;;;;21.27;16.20;;;5.60;99.90;;;;;;5033601;28;20021;-74
2022/03/23 01:04:19;;;;;;;18.88;14.93;;;5.50;99.90;;;;;;5016362;28;20029;-75
2022/03/23 01:06:45;;;;;;;16.80;13.85;;;5.50;99.90;;;;;;5033737;28;20410;-75
2022/03/23 01:09:11;;;;;;;21.42;13.63;;;5.50;99.90;;;;;;5033902;28;20026;-73
2022/03/23 01:11:37;;;;;;;17.38;13.50;;;5.40;99.90;;;;;;5033481;28;20030;-74
2022/03/23 01:14:04;;;;;;;19.75;13.70;;;5.40;99.90;;;;;;5015734;28;20029;-75
2022/03/23 01:16:30;;;;;;;16.02;12.02;;;5.40;99.90;;;;;;5033575;28;20477;-75
2022/03/23 01:18:56;;;;;;;16.63;13.38;;;5.30;99.90;;;;;;5033554;28;20021;-75
2022/03/23 01:21:22;;;;;;;16.48;12.95;;;5.20;99.90;;;;;;5032887;28;20097;-75
2022/03/23 01:23:48;;;;;;;19.73;13.98;;;5.30;99.90;;;;;;5033388;28;20105;-76
2022/03/23 01:26:13;;;;;;;19.27;13.48;;;5.20;99.90;;;;;;5033382;28;20033;-75
2022/03/23 01:28:39;;;;;;;15.52;12.75;;;5.20;99.90;;;;;;5033084;28;20104;-76
2022/03/23 01:31:05;;;;;;;18.40;14.38;;;5.10;99.90;;;;;;5033093;28;20022;-75
2022/03/23 01:33:32;;;;;;;17.63;13.00;;;4.90;99.90;;;;;;5033255;28;20025;-75
2022/03/23 01:35:57;;;;;;;20.00;13.18;;;4.90;99.90;;;;;;5033133;28;20032;-75
2022/03/23 01:38:23;;;;;;;16.55;12.90;;;4.90;99.90;;;;;;5033255;28;20390;-75
2022/03/23 01:40:49;;;;;;;18.17;13.25;;;4.90;99.90;;;;;;5033034;28;20036;-75
2022/03/23 01:43:14;;;;;;;19.08;14.25;;;4.80;99.90;;;;;;5033058;28;20459;-75
2022/03/23 01:45:40;;;;;;;20.83;13.48;;;4.70;99.90;;;;;;5032990;28;20017;-75
2022/03/23 01:48:05;;;;;;;19.83;13.43;;;4.70;99.90;;;;;;5033187;28;20030;-75
2022/03/23 01:50:31;;;;;;;22.13;16.42;;;4.70;99.90;;;;;;5032808;28;20026;-76
2022/03/23 01:52:56;;;;;;;26.08;15.65;;;4.80;99.90;;;;;;5032669;28;20163;-74
2022/03/23 01:55:23;;;;;;;25.23;14.15;;;4.70;99.90;;;;;;5032999;28;20029;-75
2022/03/23 01:57:51;;;;;;;20.67;15.77;;;4.80;99.90;;;;;;5014874;28;20044;-76
2022/03/23 02:00:18;;;;;;;21.13;14.27;;;4.70;99.90;;;;;;5033941;28;20022;-76
2022/03/23 02:02:44;;;;;;;20.55;14.20;;;4.70;99.90;;;;;;5034728;28;20048;-76
2022/03/23 02:05:11;;;;;;;23.77;15.80;;;4.70;99.90;;;;;;5015027;28;20025;-75
2022/03/23 02:07:37;;;;;;;20.75;15.18;;;4.60;99.90;;;;;;5032522;28;20497;-75
2022/03/23 02:10:07;;;;;;;18.55;14.60;;;4.80;99.90;;;;;;5032878;28;20025;-75
2022/03/23 02:12:33;;;;;;;18.92;13.95;;;4.80;99.90;;;;;;5032400;28;20080;-75
2022/03/23 02:15:08;;;;;;;25.23;15.93;;;4.70;99.90;;;;;;5032424;28;20037;-75
2022/03/23 02:17:34;;;;;;;23.80;15.43;;;4.70;99.90;;;;;;5032580;28;20109;-75
2022/03/23 02:20:00;;;;;;;19.13;14.38;;;4.60;99.90;;;;;;5032959;28;20478;-76
2022/03/23 02:22:25;;;;;;;23.85;14.85;;;4.60;99.90;;;;;;5032266;28;20037;-75
2022/03/23 02:24:51;;;;;;;19.58;14.18;;;4.60;99.90;;;;;;5032523;28;20021;-75
2022/03/23 02:27:18;;;;;;;19.77;13.88;;;4.50;99.90;;;;;;5014576;28;20030;-75
2022/03/23 02:29:44;;;;;;;21.13;14.63;;;4.50;99.90;;;;;;5014765;28;20040;-75
2022/03/23 02:32:10;;;;;;;20.40;14.07;;;4.50;99.90;;;;;;5031475;28;20057;-75
2022/03/23 02:34:35;;;;;;;20.30;14.07;;;4.50;99.90;;;;;;5014637;28;20111;-76
2022/03/23 02:37:02;;;;;;;22.35;13.38;;;4.50;99.90;;;;;;5032110;28;20030;-74
2022/03/23 02:39:27;;;;;;;19.73;13.50;;;4.50;99.90;;;;;;5032087;28;20024;-74
2022/03/23 02:41:54;;;;;;;18.08;14.02;;;4.50;99.90;;;;;;5031898;28;20021;-76
2022/03/23 02:44:20;;;;;;;18.35;13.73;;;4.40;99.90;;;;;;5031965;28;20473;-75
2022/03/23 02:46:46;;;;;;;16.63;13.20;;;4.30;99.90;;;;;;5014419;28;20041;-75
2022/03/23 02:49:16;;;;;;;22.08;14.52;;;4.40;99.90;;;;;;5032119;28;20025;-74
2022/03/23 02:51:42;;;;;;;19.98;13.90;;;4.30;99.90;;;;;;5014137;28;20489;-75
2022/03/23 03:02:48;;;;;;;18.20;13.73;;;4.20;99.90;;;;;;5032004;28;20168;-75
2022/03/23 03:05:14;;;;;;;20.08;14.65;;;4.20;99.90;;;;;;5031775;28;20060;-75
2022/03/23 03:10:26;;;;;;;21.13;14.73;;;4.20;99.90;;;;;;5031865;28;20037;-75
2022/03/23 03:12:52;;;;;;;20.70;15.40;;;4.20;99.90;;;;;;5031446;28;20025;-74
2022/03/23 03:15:20;;;;;;;21.35;13.80;;;4.20;99.90;;;;;;5031535;28;20035;-75
2022/03/23 03:17:49;;;;;;;27.27;14.40;;;4.10;99.90;;;;;;5013883;28;20302;-76
2022/03/23 03:20:15;;;;;;;21.98;15.05;;;4.00;99.90;;;;;;5031979;28;20033;-75
2022/03/23 03:22:43;;;;;;;21.17;15.75;;;4.00;99.90;;;;;;5031527;28;20388;-76
2022/03/23 03:25:12;;;;;;;19.23;15.27;;;3.90;99.90;;;;;;5031573;28;20021;-74
2022/03/23 03:27:39;;;;;;;23.77;16.00;;;3.90;99.90;;;;;;5031842;28;20033;-75
2022/03/23 03:30:07;;;;;;;23.23;16.48;;;3.90;99.90;;;;;;5031758;28;20025;-75
2022/03/23 03:32:33;;;;;;;21.50;14.68;;;4.00;99.90;;;;;;5031407;28;20028;-75
2022/03/23 03:34:58;;;;;;;29.65;16.02;;;3.90;99.90;;;;;;5031613;28;20030;-75
2022/03/23 03:37:25;;;;;;;21.83;15.75;;;3.90;99.90;;;;;;5031317;28;20026;-75
2022/03/23 03:39:50;;;;;;;17.95;14.50;;;3.90;99.90;;;;;;5031523;28;20026;-74
2022/03/23 03:42:17;;;;;;;22.00;15.63;;;3.90;99.90;;;;;;5031549;28;20070;-76
2022/03/23 03:44:44;;;;;;;19.63;15.70;;;3.80;99.90;;;;;;5017492;28;20026;-76
2022/03/23 03:47:10;;;;;;;22.70;15.40;;;3.90;99.90;;;;;;5035217;28;20362;-74
2022/03/23 03:49:36;;;;;;;22.30;15.77;;;3.90;99.90;;;;;;5035153;28;20040;-77
2022/03/23 03:52:03;;;;;;;19.65;15.35;;;3.80;99.90;;;;;;5017237;28;20040;-73
2022/03/23 03:54:28;;;;;;;20.42;14.88;;;3.80;99.90;;;;;;5035657;28;20036;-74
2022/03/23 03:56:54;;;;;;;24.35;15.82;;;3.70;99.90;;;;;;5017128;28;20385;-76
2022/03/23 03:59:20;;;;;;;19.88;15.57;;;3.70;99.90;;;;;;5034878;28;20025;-74
2022/03/23 04:01:46;;;;;;;24.10;16.27;;;3.70;99.90;;;;;;5034950;28;20442;-75
2022/03/23 04:04:11;;;;;;;18.48;16.23;;;3.70;99.90;;;;;;5016814;28;20072;-75
2022/03/23 04:06:37;;;;;;;24.00;15.02;;;3.70;99.90;;;;;;5017123;28;20394;-74
2022/03/23 04:09:02;;;;;;;21.17;15.95;;;3.80;99.90;;;;;;5034941;28;20397;-76
2022/03/23 04:11:30;;;;;;;25.90;16.13;;;3.80;99.90;;;;;;5034458;28;20036;-75
2022/03/23 04:13:55;;;;;;;21.17;14.60;;;3.80;99.90;;;;;;5034466;28;20033;-75
2022/03/23 04:16:21;;;;;;;21.35;15.45;;;3.80;99.90;;;;;;5034636;28;20030;-74
2022/03/23 04:18:47;;;;;;;21.50;16.35;;;3.80;99.90;;;;;;5034447;28;20022;-74
2022/03/23 04:21:12;;;;;;;25.33;16.17;;;3.70;99.90;;;;;;5016619;28;20053;-75
2022/03/23 04:23:38;;;;;;;19.20;15.07;;;3.70;99.90;;;;;;5034623;28;20079;-76
2022/03/23 04:26:04;;;;;;;22.17;15.38;;;3.60;99.90;;;;;;5034702;28;20021;-75
2022/03/23 04:28:31;;;;;;;22.63;15.82;;;3.60;99.90;;;;;;5016804;28;20032;-75
2022/03/23 04:30:56;;;;;;;24.75;18.02;;;3.60;99.90;;;;;;5034051;28;20033;-74
2022/03/23 04:33:22;;;;;;;25.05;17.67;;;3.60;99.90;;;;;;5016483;28;20048;-75
2022/03/23 04:35:47;;;;;;;23.60;16.30;;;3.50;99.90;;;;;;5034563;28;20026;-74
2022/03/23 04:38:13;;;;;;;24.02;16.65;;;3.50;99.90;;;;;;5034043;28;20457;-74
2022/03/23 04:40:39;;;;;;;25.67;18.30;;;3.50;99.90;;;;;;5034017;28;20029;-76
2022/03/23 04:43:05;;;;;;;24.35;16.90;;;3.40;99.90;;;;;;5016198;28;20018;-76
2022/03/23 04:45:30;;;;;;;23.15;16.83;;;3.40;99.90;;;;;;5034273;28;20056;-75
2022/03/23 04:47:56;;;;;;;20.60;16.13;;;3.50;99.90;;;;;;5017109;28;20029;-75
2022/03/23 04:50:22;;;;;;;24.15;17.40;;;3.50;99.90;;;;;;5036454;28;20094;-74
2022/03/23 04:52:52;;;;;;;27.48;17.40;;;3.50;99.90;;;;;;5016914;28;20025;-76
2022/03/23 04:55:18;;;;;;;24.17;16.55;;;3.40;99.90;;;;;;5034281;28;20443;-75
2022/03/23 04:57:44;;;;;;;22.45;16.85;;;3.40;99.90;;;;;;5034124;28;20052;-76
2022/03/23 05:00:13;;;;;;;30.80;17.45;;;3.40;99.90;;;;;;5016310;28;20298;-76
2022/03/23 05:02:40;;;;;;;23.83;17.98;;;3.40;99.90;;;;;;5015893;28;20021;-74
2022/03/23 05:05:07;;;;;;;32.25;18.52;;;3.30;99.90;;;;;;5016144;28;20018;-75
2022/03/23 05:07:33;;;;;;;24.45;16.98;;;3.30;99.90;;;;;;5033819;28;20072;-74
2022/03/23 05:09:58;;;;;;;21.50;15.85;;;3.20;99.90;;;;;;5033855;28;20497;-75
2022/03/23 05:12:24;;;;;;;28.50;17.75;;;3.20;99.90;;;;;;5033373;28;20021;-75
2022/03/23 05:14:49;;;;;;;28.98;18.00;;;3.20;1.00;;;;;;5015767;28;20448;-76
2022/03/23 05:17:15;;;;;;;29.98;18.60;;;3.20;99.90;;;;;;5033411;28;20112;-75
2022/03/23 05:19:41;;;;;;;30.05;17.67;;;3.20;99.90;;;;;;5015828;28;20027;-76
2022/03/23 05:22:06;;;;;;;27.17;17.70;;;3.20;99.90;;;;;;5033822;28;20018;-76
2022/03/23 05:24:32;;;;;;;29.33;17.33;;;3.30;99.90;;;;;;5015619;28;20387;-76
2022/03/23 05:26:58;;;;;;;31.67;17.80;;;3.30;99.90;;;;;;5033286;28;20033;-75
2022/03/23 05:29:24;;;;;;;26.45;18.38;;;3.30;99.90;;;;;;5015564;28;20482;-76
2022/03/23 05:31:49;;;;;;;26.27;18.58;;;3.40;99.90;;;;;;5015407;28;20033;-76
2022/03/23 05:34:15;;;;;;;28.65;17.20;;;3.40;99.90;;;;;;5015938;28;20037;-75
2022/03/23 05:36:41;;;;;;;29.08;17.75;;;3.50;99.90;;;;;;5033537;28;20035;-76
2022/03/23 05:39:07;;;;;;;25.35;16.75;;;3.80;99.90;;;;;;5015732;28;20021;-75
2022/03/23 05:41:32;;;;;;;23.98;18.00;;;4.00;99.90;;;;;;5033619;28;20072;-76
2022/03/23 05:43:58;;;;;;;25.38;16.73;;;4.20;99.90;;;;;;5033630;28;20021;-78
2022/03/23 05:46:25;;;;;;;27.80;17.58;;;4.30;99.90;;;;;;5015775;28;20056;-75
2022/03/23 05:48:52;;;;;;;26.38;18.25;;;4.40;99.90;;;;;;5033169;28;20080;-76
2022/03/23 05:51:18;;;;;;;28.35;16.83;;;4.80;99.90;;;;;;5032877;28;20046;-77
2022/03/23 05:53:43;;;;;;;29.90;18.02;;;4.80;99.90;;;;;;5032977;28;20421;-75
2022/03/23 05:56:09;;;;;;;32.08;18.35;;;4.70;99.90;;;;;;5015581;28;20021;-76
2022/03/23 05:58:35;;;;;;;27.98;17.73;;;4.80;99.90;;;;;;5015326;28;20083;-75
2022/03/23 06:01:02;;;;;;;31.10;17.55;;;4.60;99.90;;;;;;5033481;28;20093;-77
2022/03/23 06:03:28;;;;;;;22.73;16.90;;;4.60;99.90;;;;;;5033016;28;20029;-75
2022/03/23 06:05:53;;;;;;;24.63;17.65;;;4.60;99.90;;;;;;5015172;28;20429;-75
2022/03/23 06:08:20;;;;;;;21.25;16.00;;;4.60;99.90;;;;;;5032755;28;20029;-77
2022/03/23 06:10:45;;;;;;;31.73;17.95;;;4.60;99.90;;;;;;5033304;28;20042;-75
2022/03/23 06:13:11;;;;;;;20.70;16.98;;;4.70;99.90;;;;;;5032793;28;20034;-78
2022/03/23 06:15:37;;;;;;;23.52;17.70;;;4.80;99.90;;;;;;5036380;28;20029;-75
2022/03/23 06:18:02;;;;;;;22.20;16.67;;;4.90;99.90;;;;;;5040014;28;20104;-76
2022/03/23 06:20:28;;;;;;;27.60;18.75;;;4.90;99.90;;;;;;5040324;28;20025;-75
2022/03/23 06:22:54;;;;;;;22.52;17.33;;;5.00;99.90;;;;;;5040201;28;20026;-74
2022/03/23 06:25:19;;;;;;;25.25;17.67;;;5.10;99.90;;;;;;5041512;28;20036;-76
2022/03/23 06:27:45;;;;;;;21.65;16.73;;;5.20;99.90;;;;;;5036583;28;20060;-77
2022/03/23 06:30:11;;;;;;;24.20;17.30;;;5.30;99.90;;;;;;5032460;28;20100;-75
2022/03/23 06:32:37;;;;;;;24.95;16.15;;;5.30;99.90;;;;;;5015114;28;20128;-76
2022/03/23 06:35:04;;;;;;;19.40;16.05;;;5.40;99.90;;;;;;5032420;28;20059;-75
2022/03/23 06:37:32;;;;;;;24.30;17.65;;;5.60;99.90;;;;;;5032364;28;20033;-76
2022/03/23 06:39:58;;;;;;;26.80;18.27;;;5.70;99.90;;;;;;5032359;28;20017;-76
2022/03/23 06:42:24;;;;;;;24.38;16.25;;;5.80;99.90;;;;;;5032035;28;20026;-76
2022/03/23 06:44:50;;;;;;;24.20;15.88;;;5.80;99.90;;;;;;5014653;28;20029;-75
2022/03/23 06:47:15;;;;;;;27.23;17.60;;;5.90;99.90;;;;;;5032552;28;20104;-75
2022/03/23 06:49:42;;;;;;;33.13;18.63;;;5.90;99.90;;;;;;5015601;28;20083;-75
2022/03/23 06:52:08;;;;;;;24.92;18.50;;;6.20;99.90;;;;;;5032893;28;20116;-75
2022/03/23 06:54:33;;;;;;;24.88;16.30;;;6.30;99.90;;;;;;5033119;28;20057;-74
2022/03/23 06:56:59;;;;;;;26.13;17.17;;;6.40;99.90;;;;;;5015289;28;20053;-74
2022/03/23 06:59:25;;;;;;;25.85;17.38;;;6.20;99.90;;;;;;5032452;28;20053;-75
2022/03/23 07:01:50;;;;;;;25.55;16.90;;;6.40;99.90;;;;;;5032796;28;20018;-76
2022/03/23 07:04:16;;;;;;;27.42;17.77;;;6.50;99.90;;;;;;5032361;28;20026;-75
2022/03/23 07:06:41;;;;;;;22.02;16.42;;;6.60;99.90;;;;;;5032591;28;20033;-75
2022/03/23 07:11:51;;;;;;;24.25;17.63;;;6.70;99.90;;;;;;5035543;28;20041;-74
2022/03/23 07:14:17;;;;;;;29.77;17.83;;;6.80;99.90;;;;;;5032548;28;20037;-75
2022/03/23 07:16:43;;;;;;;22.60;16.35;;;6.90;99.90;;;;;;5014658;28;20079;-75
2022/03/23 07:19:09;;;;;;;26.13;17.92;;;7.00;99.90;;;;;;5035561;28;20108;-76
2022/03/23 07:21:35;;;;;;;21.52;17.55;;;6.90;99.90;;;;;;5036850;28;20555;-76
2022/03/23 07:24:01;;;;;;;32.72;18.77;;;7.00;99.90;;;;;;5036817;28;20033;-77
2022/03/23 07:26:26;;;;;;;24.80;16.70;;;7.10;99.90;;;;;;5038016;28;20370;-75
2022/03/23 07:28:52;;;;;;;25.40;18.13;;;6.90;99.90;;;;;;5019196;28;20025;-76
2022/03/23 07:31:17;;;;;;;20.45;16.83;;;7.20;99.90;;;;;;5018724;28;20378;-75
2022/03/23 07:33:43;;;;;;;20.90;17.80;;;7.30;99.90;;;;;;5035894;28;20021;-76
2022/03/23 07:36:11;;;;;;;23.10;15.80;;;7.40;99.90;;;;;;5020634;28;20465;-75
2022/03/23 07:38:36;;;;;;;26.17;17.15;;;7.40;99.90;;;;;;5020428;28;20075;-76
2022/03/23 07:41:02;;;;;;;27.02;15.65;;;7.50;99.90;;;;;;5036204;28;20389;-73
2022/03/23 07:43:27;;;;;;;27.58;17.40;;;7.50;99.90;;;;;;5036285;28;20021;-75
2022/03/23 07:45:53;;;;;;;19.95;16.60;;;7.60;99.90;;;;;;5036703;28;20021;-76
2022/03/23 07:48:20;;;;;;;24.65;16.90;;;7.90;99.90;;;;;;5036468;28;20033;-75
2022/03/23 07:50:46;;;;;;;24.20;16.77;;;8.20;99.90;;;;;;5036396;28;20409;-76
2022/03/23 07:53:11;;;;;;;28.27;17.35;;;8.30;99.60;;;;;;5036723;28;20029;-75
2022/03/23 07:55:37;;;;;;;23.30;17.08;;;8.20;99.70;;;;;;5036936;28;20037;-75
2022/03/23 07:58:02;;;;;;;25.42;18.20;;;8.20;99.70;;;;;;5018026;28;20031;-75
2022/03/23 08:00:28;;;;;;;23.88;17.75;;;8.30;99.70;;;;;;5036194;28;20022;-75
2022/03/23 08:02:54;;;;;;;31.92;18.40;;;8.50;99.40;;;;;;5036369;28;20026;-75
2022/03/23 08:05:19;;;;;;;27.92;17.60;;;8.60;98.70;;;;;;5018046;28;20064;-75
2022/03/23 08:07:45;;;;;;;28.70;18.38;;;8.70;98.50;;;;;;5036337;28;20034;-75
2022/03/23 08:10:11;;;;;;;27.70;17.95;;;8.90;98.30;;;;;;5017689;28;20091;-75
2022/03/23 08:12:36;;;;;;;23.52;18.77;;;9.10;97.90;;;;;;5035157;28;20037;-75
2022/03/23 08:15:03;;;;;;;23.67;17.83;;;9.20;97.50;;;;;;5035731;28;20034;-74
2022/03/23 08:17:28;;;;;;;22.00;16.95;;;9.20;97.70;;;;;;5035613;28;20393;-76
2022/03/23 08:22:38;;;;;;;25.27;16.77;;;9.50;97.30;;;;;;5034860;28;20037;-75
2022/03/23 08:25:04;;;;;;;24.88;17.38;;;9.70;96.70;;;;;;5017819;28;20025;-76
2022/03/23 08:27:30;;;;;;;29.08;18.48;;;9.80;96.40;;;;;;5035510;28;20052;-76
2022/03/23 08:29:55;;;;;;;27.27;18.20;;;9.90;96.10;;;;;;5034593;28;20026;-76
2022/03/23 08:32:22;;;;;;;24.92;18.52;;;9.90;95.90;;;;;;5035511;28;20079;-75
2022/03/23 08:34:51;;;;;;;29.55;19.10;;;10.00;95.90;;;;;;5036123;28;20416;-75
2022/03/23 08:37:17;;;;;;;27.35;18.55;;;10.10;95.60;;;;;;5035383;28;20608;-76
2022/03/23 08:39:42;;;;;;;25.95;17.23;;;10.20;95.40;;;;;;5035085;28;20048;-76
2022/03/23 08:42:08;;;;;;;24.20;18.73;;;10.40;95.20;;;;;;5034543;28;20029;-77
2022/03/23 08:44:34;;;;;;;29.70;18.13;;;10.50;94.90;;;;;;5034876;28;20021;-75
2022/03/23 08:47:00;;;;;;;27.05;18.67;;;10.60;94.60;;;;;;5035064;28;20083;-76
2022/03/23 08:49:25;;;;;;;28.77;18.45;;;10.80;94.30;;;;;;5034583;28;20109;-75
2022/03/23 08:51:51;;;;;;;26.38;17.85;;;10.70;94.30;;;;;;5035152;28;20057;-76
2022/03/23 08:54:16;;;;;;;26.08;18.80;;;10.80;94.20;;;;;;5034128;28;20025;-74
2022/03/23 08:56:42;;;;;;;28.08;19.08;;;10.90;93.80;;;;;;5033920;28;20036;-75
2022/03/23 08:59:08;;;;;;;24.80;18.58;;;10.90;94.00;;;;;;5016533;28;20018;-74
2022/03/23 09:01:33;;;;;;;28.90;19.40;;;11.10;93.30;;;;;;5017983;28;20061;-75
2022/03/23 09:04:03;;;;;;;30.05;18.35;;;11.20;93.30;;;;;;5037090;28;20112;-75
2022/03/23 09:06:29;;;;;;;26.02;18.70;;;11.20;93.10;;;;;;5035917;28;20017;-76
2022/03/23 09:08:55;;;;;;;29.58;19.42;;;11.40;92.50;;;;;;5018320;28;20035;-76
2022/03/23 09:11:22;;;;;;;27.33;20.27;;;11.30;92.90;;;;;;5017752;28;20082;-76
2022/03/23 09:13:48;;;;;;;24.58;19.40;;;11.60;92.40;;;;;;5033977;28;20032;-75
2022/03/23 09:16:14;;;;;;;33.33;19.08;;;11.70;91.90;;;;;;5034389;28;20022;-76
2022/03/23 09:18:40;;;;;;;25.27;18.50;;;11.90;91.60;;;;;;5016156;28;20121;-76
2022/03/23 09:21:05;;;;;;;28.02;18.50;;;11.80;91.30;;;;;;5015459;28;20014;-75
2022/03/23 09:23:31;;;;;;;25.73;18.52;;;12.00;91.30;;;;;;5033484;28;20029;-75
2022/03/23 09:25:56;;;;;;;29.33;17.90;;;12.10;90.90;;;;;;5033149;28;20108;-75
2022/03/23 09:28:23;;;;;;;25.42;18.98;;;12.20;90.90;;;;;;5033682;28;20037;-76
2022/03/23 09:30:48;;;;;;;24.40;18.95;;;12.40;90.40;;;;;;5033752;28;20034;-75
2022/03/23 09:33:15;;;;;;;29.48;19.02;;;12.50;89.10;;;;;;5035593;28;20060;-75
2022/03/23 09:35:41;;;;;;;31.13;19.60;;;12.50;88.80;;;;;;5034247;28;20029;-75
2022/03/23 09:38:06;;;;;;;25.52;18.27;;;12.60;88.70;;;;;;5015634;28;20025;-77
2022/03/23 09:40:32;;;;;;;24.15;17.80;;;12.80;86.50;;;;;;5033482;28;20025;-76
2022/03/23 09:43:08;;;;;;;26.77;19.50;;;12.90;86.20;;;;;;5034613;28;20612;-75
2022/03/23 09:48:09;;;;;;;28.45;19.08;;;13.30;84.00;;;;;;5033865;28;20053;-75
2022/03/23 09:50:36;;;;;;;23.02;18.05;;;13.40;83.70;;;;;;5034174;28;20458;-76
2022/03/23 09:53:03;;;;;;;29.63;18.50;;;13.60;81.90;;;;;;5033694;28;20025;-76
2022/03/23 09:55:29;;;;;;;25.23;17.38;;;13.70;81.50;;;;;;5017258;28;20482;-75
2022/03/23 09:57:55;;;;;;;19.45;16.48;;;13.70;80.00;;;;;;5016716;28;20075;-75
2022/03/23 10:00:22;;;;;;;25.85;18.10;;;13.80;76.40;;;;;;5037068;28;20105;-76
2022/03/23 10:02:56;;;;;;;33.70;18.38;;;14.00;77.50;;;;;;5033869;28;20022;-76
2022/03/23 10:06:00;;;;;;;23.08;15.50;;;14.20;76.60;;;;;;5035126;28;20025;-76
2022/03/23 10:09:08;;;;;;;24.00;16.05;;;14.40;72.10;;;;;;5033090;28;20418;-76
2022/03/23 10:11:52;;;;;;;18.02;15.40;;;14.40;71.70;;;;;;5033098;28;20105;-76
2022/03/23 10:15:11;;;;;;;14.20;12.75;;;14.60;70.60;;;;;;5033235;28;20052;-75
2022/03/23 10:17:51;;;;;;;17.55;13.23;;;14.30;65.80;;;;;;5033641;28;20034;-76
2022/03/23 10:20:16;;;;;;;18.90;13.70;;;14.60;64.00;;;;;;5034599;28;20541;-76
2022/03/23 10:22:53;;;;;;;17.10;12.80;;;14.70;63.60;;;;;;5034406;28;20025;-76
2022/03/23 10:25:21;;;;;;;17.65;15.48;;;15.00;62.80;;;;;;5015680;28;20497;-78
2022/03/23 10:27:47;;;;;;;16.45;14.10;;;15.00;61.40;;;;;;5034272;28;20076;-76
2022/03/23 10:30:14;;;;;;;13.90;12.38;;;15.00;61.50;;;;;;5015401;28;20025;-76
2022/03/23 10:32:44;;;;;;;15.18;11.85;;;15.30;60.90;;;;;;5032818;28;20079;-75
2022/03/23 10:35:14;;;;;;;11.65;9.95;;;15.50;58.40;;;;;;5015240;28;20033;-76
2022/03/23 10:37:41;;;;;;;11.10;10.02;;;15.50;54.90;;;;;;5016822;28;20021;-77
2022/03/23 10:40:12;;;;;;;18.27;14.25;;;15.50;55.50;;;;;;5015456;28;20048;-76
2022/03/23 10:42:39;;;;;;;;;;;15.70;57.90;;;;;;5034742;28;20033;-75
2022/03/23 10:45:08;;;;;;;15.10;12.00;;;15.80;57.80;;;;;;5033450;28;19912;-74
2022/03/23 10:47:35;;;;;;;13.57;12.20;;;15.80;57.90;;;;;;5034723;28;20029;-78
2022/03/23 10:50:21;;;;;;;12.88;11.68;;;15.80;56.90;;;;;;5016802;28;20025;-76
2022/03/23 10:52:55;;;;;;;15.15;11.73;;;16.10;55.70;;;;;;5014104;28;20057;-76
2022/03/23 10:55:23;;;;;;;13.45;11.32;;;16.40;54.30;;;;;;5017370;28;20026;-76
2022/03/23 10:57:52;;;;;;;15.38;11.88;;;16.20;53.70;;;;;;5033209;28;20028;-75
2022/03/23 11:00:32;;;;;;;17.48;12.15;;;16.00;53.90;;;;;;5015830;28;20420;-76
2022/03/23 11:02:59;;;;;;;21.73;11.98;;;16.00;54.10;;;;;;5032944;28;20421;-76
2022/03/23 11:05:37;;;;;;;15.82;12.45;;;16.30;54.30;;;;;;5015789;28;20068;-75
2022/03/23 11:08:09;;;;;;;16.60;12.52;;;16.40;54.20;;;;;;5015407;28;20056;-76
2022/03/23 11:16:27;;;;;;;12.13;10.93;;;16.80;52.60;;;;;;5033742;28;20087;-76
2022/03/23 11:18:58;;;;;;;13.05;11.25;;;17.00;51.60;;;;;;5015392;28;20044;-77
2022/03/23 11:21:24;;;;;;;13.60;12.20;;;17.10;52.20;;;;;;5033238;28;20083;-76
2022/03/23 11:23:49;;;;;;;12.32;10.55;;;17.10;51.60;;;;;;5032822;28;20443;-75
2022/03/23 11:26:15;;;;;;;14.07;11.90;;;17.10;51.50;;;;;;5032896;28;20021;-77
2022/03/23 11:28:43;;;;;;;12.57;11.27;;;17.20;51.30;;;;;;5032893;28;20056;-76
2022/03/23 11:31:12;;;;;;;12.20;11.00;;;17.20;51.10;;;;;;5014410;28;20025;-77
2022/03/23 11:33:39;;;;;;;12.48;10.07;;;17.20;51.40;;;;;;5032256;28;20032;-74
2022/03/23 11:36:08;;;;;;;11.43;10.00;;;17.40;51.00;;;;;;5031841;28;20531;-76
2022/03/23 11:38:34;;;;;;;10.43;9.45;;;17.60;50.90;;;;;;5033380;28;20209;-76
2022/03/23 11:41:00;;;;;;;11.80;10.30;;;17.30;49.40;;;;;;5032932;28;20397;-76
2022/03/23 11:43:29;;;;;;;9.35;7.88;;;17.20;49.40;;;;;;5032384;28;20121;-76
2022/03/23 11:45:56;;;;;;;11.80;9.75;;;17.30;48.60;;;;;;5031999;28;20363;-77
2022/03/23 11:48:39;;;;;;;9.48;8.65;;;17.60;49.30;;;;;;5032819;28;20026;-76
2022/03/23 11:51:21;;;;;;;11.43;9.52;;;17.40;49.00;;;;;;5037585;28;20025;-76
2022/03/23 11:53:55;;;;;;;8.50;7.80;;;17.10;49.40;;;;;;5033836;28;20026;-76
2022/03/23 11:56:28;;;;;;;10.10;9.10;;;17.40;48.80;;;;;;5033537;28;20521;-76
2022/03/23 11:58:54;;;;;;;10.50;8.70;;;17.40;48.80;;;;;;5015474;28;20029;-76
2022/03/23 12:01:20;;;;;;;9.80;8.55;;;17.30;49.10;;;;;;5032330;28;20049;-76
2022/03/23 12:03:51;;;;;;;15.32;8.35;;;17.60;48.70;;;;;;5032690;28;20086;-76
2022/03/23 12:06:23;;;;;;;;;;;17.80;48.50;;;;;;5036711;28;20025;-76
2022/03/23 12:08:53;;;;;;;10.48;8.75;;;17.60;48.30;;;;;;5039038;28;19905;-78
2022/03/23 12:11:38;;;;;;;9.60;8.70;;;17.50;48.90;;;;;;5018064;28;20033;-76
2022/03/23 12:14:19;;;;;;;9.48;8.63;;;17.40;47.50;;;;;;5017650;28;20029;-76
2022/03/23 12:16:50;;;;;;;16.42;8.60;;;17.30;48.30;;;;;;5017395;28;20040;-76
2022/03/23 12:19:23;;;;;;;10.80;8.75;;;17.70;47.90;;;;;;5019040;28;20038;-76
2022/03/23 12:22:14;;;;;;;9.25;8.30;;;17.90;47.30;;;;;;5035783;28;20030;-75
2022/03/23 12:25:21;;;;;;;11.75;8.02;;;18.00;46.80;;;;;;5017124;28;20025;-76
2022/03/23 12:28:01;;;;;;;9.52;8.57;;;18.20;46.40;;;;;;5036955;28;20136;-77
2022/03/23 12:30:27;;;;;;;10.20;8.73;;;18.00;46.50;;;;;;5017715;28;20025;-76
2022/03/23 12:32:55;;;;;;;10.73;7.88;;;18.20;46.00;;;;;;5034372;28;20052;-76
2022/03/23 12:35:34;;;;;;;10.25;8.57;;;18.00;45.10;;;;;;5034957;28;20026;-76
2022/03/23 12:38:02;;;;;;;10.25;8.65;;;18.00;45.20;;;;;;5035480;28;20067;-76
2022/03/23 12:40:44;;;;;;;9.70;8.40;;;17.90;45.20;;;;;;5018428;28;20040;-76
2022/03/23 12:43:42;;;;;;;10.35;9.10;;;17.80;45.70;;;;;;5034309;28;20030;-75
2022/03/23 12:46:26;;;;;;;9.90;9.00;;;18.10;47.00;;;;;;5016665;28;20032;-76
2022/03/23 13:00:26;;;;;;;10.50;9.27;;;18.50;46.70;;;;;;5035199;28;19912;-76
2022/03/23 13:03:12;;;;;;;8.90;7.95;;;18.40;46.50;;;;;;5035158;28;20021;-76
2022/03/23 13:05:58;;;;;;;10.52;8.98;;;18.50;45.00;;;;;;5038273;28;20026;-74
2022/03/23 13:08:30;;;;;;;9.10;8.20;;;18.60;46.00;;;;;;5025547;28;20031;-75
2022/03/23 13:10:58;;;;;;;11.77;8.63;;;18.40;46.30;;;;;;5058422;28;20026;-73
2022/03/23 13:13:27;;;;;;;10.65;9.07;;;18.60;45.90;;;;;;5040895;28;20029;-74
2022/03/23 13:15:53;;;;;;;10.10;9.20;;;18.50;45.80;;;;;;5039701;28;20035;-74